createdAt,value
2024-03-13T00:00:14.610Z,24.10
2024-03-13T00:01:19.048Z,21.60
2024-03-13T00:02:22.818Z,23.20
2024-03-13T00:03:25.295Z,24.80
2024-03-13T00:04:29.259Z,23.00
2024-03-13T00:05:31.579Z,22.70
2024-03-13T00:06:34.861Z,26.20
2024-03-13T00:07:39.257Z,23.50
2024-03-13T00:08:41.565Z,24.50
2024-03-13T00:09:47.224Z,25.00
2024-03-13T00:10:53.045Z,25.30
2024-03-13T00:11:55.658Z,21.50
2024-03-13T00:12:57.752Z,25.80
2024-03-13T00:14:01.742Z,25.33
2024-03-13T00:15:06.195Z,22.40
2024-03-13T00:16:09.026Z,25.30
2024-03-13T00:17:13.000Z,22.90
2024-03-13T00:18:15.407Z,18.70
2024-03-13T00:19:17.574Z,22.40
2024-03-13T00:20:20.666Z,22.40
2024-03-13T00:21:22.930Z,25.36
2024-03-13T00:22:26.373Z,20.90
2024-03-13T00:23:28.477Z,21.70
2024-03-13T00:24:31.465Z,23.89
2024-03-13T00:25:36.389Z,24.00
2024-03-13T00:26:39.133Z,23.20
2024-03-13T00:27:42.631Z,24.50
2024-03-13T00:28:44.799Z,25.10
2024-03-13T00:29:48.471Z,21.60
2024-03-13T00:30:52.081Z,22.70
2024-03-13T00:31:54.404Z,23.50
2024-03-13T00:32:56.662Z,21.60
2024-03-13T00:33:58.929Z,20.20
2024-03-13T00:35:01.833Z,24.10
2024-03-13T00:36:05.613Z,19.18
2024-03-13T00:37:09.491Z,21.90
2024-03-13T00:38:12.021Z,23.50
2024-03-13T00:39:15.305Z,22.70
2024-03-13T00:40:17.805Z,20.70
2024-03-13T00:41:19.964Z,21.60
2024-03-13T00:42:22.014Z,20.80
2024-03-13T00:43:24.532Z,18.44
2024-03-13T00:44:26.800Z,22.80
2024-03-13T00:45:28.957Z,18.40
2024-03-13T00:46:31.966Z,22.40
2024-03-13T00:47:35.194Z,22.27
2024-03-13T00:48:37.400Z,22.00
2024-03-13T00:49:41.452Z,20.60
2024-03-13T00:50:45.578Z,20.10
2024-03-13T00:51:49.908Z,21.20
2024-03-13T00:52:54.096Z,16.10
2024-03-13T00:53:56.276Z,19.50
2024-03-13T00:54:59.003Z,18.40
2024-03-13T00:56:02.258Z,19.10
2024-03-13T00:57:04.897Z,17.20
2024-03-13T00:58:08.947Z,19.30
2024-03-13T00:59:13.102Z,19.90
2024-03-13T01:00:18.061Z,16.80
2024-03-13T01:01:21.925Z,18.90
2024-03-13T01:02:24.378Z,17.64
2024-03-13T01:03:26.474Z,15.70
2024-03-13T01:04:30.169Z,19.00
2024-03-13T01:05:32.509Z,15.60
2024-03-13T01:06:35.008Z,12.80
2024-03-13T01:07:37.357Z,13.00
2024-03-13T01:08:39.634Z,17.40
2024-03-13T01:09:42.099Z,16.70
2024-03-13T01:10:44.643Z,14.90
2024-03-13T01:11:47.029Z,13.70
2024-03-13T01:12:49.722Z,15.00
2024-03-13T01:13:52.331Z,17.40
2024-03-13T01:14:54.816Z,15.30
2024-03-13T01:15:57.137Z,15.90
2024-03-13T01:17:00.881Z,16.10
2024-03-13T01:18:04.014Z,15.40
2024-03-13T01:19:06.135Z,14.60
2024-03-13T01:20:10.137Z,15.50
2024-03-13T01:21:12.530Z,11.80
2024-03-13T01:22:17.016Z,16.60
2024-03-13T01:23:21.082Z,16.90
2024-03-13T01:24:23.758Z,11.40
2024-03-13T01:25:28.712Z,14.80
2024-03-13T01:26:32.922Z,15.10
2024-03-13T01:27:35.375Z,17.60
2024-03-13T01:28:37.728Z,14.50
2024-03-13T01:29:41.864Z,14.60
2024-03-13T01:30:45.191Z,17.70
2024-03-13T01:31:47.702Z,16.80
2024-03-13T01:32:49.845Z,14.90
2024-03-13T01:33:52.068Z,12.40
2024-03-13T01:34:54.414Z,14.50
2024-03-13T01:35:56.680Z,16.90
2024-03-13T01:37:18.154Z,15.40
2024-03-13T01:38:20.871Z,18.70
2024-03-13T01:39:27.564Z,17.00
2024-03-13T01:40:48.569Z,14.80
2024-03-13T01:42:09.738Z,17.20
2024-03-13T01:43:30.923Z,16.80
2024-03-13T01:44:51.738Z,19.80
2024-03-13T01:46:33.997Z,17.20
2024-03-13T01:47:54.988Z,17.00
2024-03-13T01:49:18.537Z,14.60
2024-03-13T01:50:39.824Z,17.60
2024-03-13T01:52:02.425Z,18.80
2024-03-13T01:53:23.740Z,21.30
2024-03-13T01:54:44.896Z,17.90
2024-03-13T01:55:47.713Z,18.10
2024-03-13T01:57:00.372Z,21.60
2024-03-13T01:58:03.544Z,18.10
2024-03-13T02:00:43.466Z,19.70
2024-03-13T02:02:04.797Z,18.30
2024-03-13T02:03:08.938Z,19.60
2024-03-13T02:04:11.092Z,15.60
2024-03-13T02:05:14.938Z,20.44
2024-03-13T02:06:17.901Z,17.20
2024-03-13T02:07:24.031Z,19.45
2024-03-13T02:08:26.458Z,21.70
2024-03-13T02:09:29.975Z,20.60
2024-03-13T02:10:33.172Z,23.10
2024-03-13T02:11:37.517Z,22.00
2024-03-13T02:12:39.697Z,22.20
2024-03-13T02:13:42.658Z,18.40
2024-03-13T02:14:44.783Z,21.70
2024-03-13T02:15:47.627Z,18.50
2024-03-13T02:16:54.077Z,21.00
2024-03-13T02:17:57.581Z,18.10
2024-03-13T02:19:00.718Z,12.40
2024-03-13T02:20:05.306Z,20.50
2024-03-13T02:21:08.412Z,20.40
2024-03-13T02:22:14.268Z,23.30
2024-03-13T02:23:22.608Z,18.50
2024-03-13T02:24:24.816Z,21.20
2024-03-13T02:25:28.650Z,20.00
2024-03-13T02:26:32.254Z,21.10
2024-03-13T02:27:34.476Z,19.36
2024-03-13T02:28:38.201Z,17.40
2024-03-13T02:29:42.878Z,21.30
2024-03-13T02:30:45.200Z,19.40
2024-03-13T02:31:47.526Z,20.90
2024-03-13T02:32:50.070Z,19.20
2024-03-13T02:33:52.348Z,20.40
2024-03-13T02:34:56.573Z,17.80
2024-03-13T02:35:59.022Z,19.80
2024-03-13T02:37:02.633Z,19.70
2024-03-13T02:38:05.277Z,0.60
2024-03-13T02:39:10.229Z,18.10
2024-03-13T02:40:16.956Z,18.00
2024-03-13T02:41:19.154Z,19.80
2024-03-13T02:42:21.304Z,20.90
2024-03-13T02:43:24.327Z,19.40
2024-03-13T02:44:26.700Z,19.09
2024-03-13T02:45:29.442Z,15.70
2024-03-13T02:46:31.919Z,21.40
2024-03-13T02:47:34.569Z,18.10
2024-03-13T02:48:37.290Z,20.20
2024-03-13T02:49:39.565Z,17.80
2024-03-13T02:50:43.376Z,20.60
2024-03-13T02:51:45.925Z,22.70
2024-03-13T02:52:48.288Z,20.70
2024-03-13T02:53:50.921Z,21.30
2024-03-13T02:54:53.318Z,20.20
2024-03-13T02:55:55.845Z,12.60
2024-03-13T02:56:58.478Z,17.60
2024-03-13T02:58:02.123Z,19.20
2024-03-13T02:59:04.625Z,18.60
2024-03-13T03:00:09.092Z,18.40
2024-03-13T03:01:13.263Z,20.30
2024-03-13T03:02:15.677Z,20.80
2024-03-13T03:03:18.417Z,17.00
2024-03-13T03:04:20.528Z,20.50
2024-03-13T03:05:23.339Z,22.89
2024-03-13T03:06:25.834Z,21.70
2024-03-13T03:07:28.966Z,21.00
2024-03-13T03:08:33.784Z,22.30
2024-03-13T03:09:36.115Z,22.40
2024-03-13T03:10:38.483Z,21.90
2024-03-13T03:11:42.722Z,22.00
2024-03-13T03:12:46.034Z,12.20
2024-03-13T03:13:48.344Z,21.90
2024-03-13T03:14:50.806Z,22.40
2024-03-13T03:15:52.966Z,20.00
2024-03-13T03:16:55.486Z,21.50
2024-03-13T03:17:57.801Z,21.90
2024-03-13T03:19:00.878Z,19.10
2024-03-13T03:20:04.268Z,22.82
2024-03-13T03:21:08.579Z,23.70
2024-03-13T03:22:10.779Z,24.80
2024-03-13T03:23:14.188Z,22.20
2024-03-13T03:24:17.535Z,20.40
2024-03-13T03:25:24.570Z,24.40
2024-03-13T03:26:29.845Z,22.50
2024-03-13T03:27:32.271Z,16.90
2024-03-13T03:28:34.727Z,20.80
2024-03-13T03:29:38.896Z,21.70
2024-03-13T03:30:46.218Z,20.50
2024-03-13T03:31:48.322Z,20.70
2024-03-13T03:32:50.498Z,19.20
2024-03-13T03:33:52.825Z,20.00
2024-03-13T03:34:54.978Z,18.50
2024-03-13T03:35:56.949Z,19.56
2024-03-13T03:37:01.339Z,20.10
2024-03-13T03:38:06.227Z,19.80
2024-03-13T03:39:13.664Z,17.60
2024-03-13T03:40:17.046Z,19.20
2024-03-13T03:41:19.512Z,21.90
2024-03-13T03:42:23.040Z,18.90
2024-03-13T03:43:26.961Z,21.50
2024-03-13T03:44:30.849Z,22.70
2024-03-13T03:45:33.116Z,22.20
2024-03-13T03:46:35.568Z,19.60
2024-03-13T03:47:38.902Z,22.70
2024-03-13T03:48:43.996Z,21.80
2024-03-13T03:49:47.285Z,17.60
2024-03-13T03:50:49.924Z,21.50
2024-03-13T03:51:52.625Z,23.40
2024-03-13T03:52:54.603Z,24.30
2024-03-13T03:53:57.680Z,21.11
2024-03-13T03:54:59.895Z,22.40
2024-03-13T03:56:02.699Z,23.10
2024-03-13T03:57:05.367Z,22.80
2024-03-13T03:58:07.707Z,24.30
2024-03-13T03:59:10.076Z,19.70
2024-03-13T04:00:13.413Z,24.40
2024-03-13T04:01:15.680Z,21.80
2024-03-13T04:02:19.406Z,15.30
2024-03-13T04:03:22.906Z,19.70
2024-03-13T04:04:26.955Z,23.50
2024-03-13T04:05:30.380Z,24.10
2024-03-13T04:06:33.142Z,22.00
2024-03-13T04:07:39.979Z,24.00
2024-03-13T04:08:42.932Z,24.40
2024-03-13T04:09:45.086Z,23.27
2024-03-13T04:10:48.928Z,23.40
2024-03-13T04:11:55.430Z,23.40
2024-03-13T04:12:57.723Z,25.10
2024-03-13T04:14:02.185Z,24.80
2024-03-13T04:15:05.561Z,25.60
2024-03-13T04:16:11.180Z,23.30
2024-03-13T04:17:13.452Z,23.50
2024-03-13T04:18:15.937Z,23.50
2024-03-13T04:19:18.142Z,24.60
2024-03-13T04:20:21.713Z,25.10
2024-03-13T04:21:24.103Z,24.40
2024-03-13T04:22:27.142Z,22.50
2024-03-13T04:23:30.400Z,23.27
2024-03-13T04:24:33.711Z,23.80
2024-03-13T04:25:37.726Z,22.80
2024-03-13T04:26:41.051Z,25.20
2024-03-13T04:27:44.463Z,24.45
2024-03-13T04:28:47.589Z,21.00
2024-03-13T04:29:49.730Z,25.90
2024-03-13T04:30:51.947Z,22.70
2024-03-13T04:31:55.443Z,25.20
2024-03-13T04:32:58.583Z,25.10
2024-03-13T04:34:02.363Z,24.80
2024-03-13T04:35:05.222Z,25.10
2024-03-13T04:36:08.266Z,23.80
2024-03-13T04:37:12.426Z,25.36
2024-03-13T04:38:14.794Z,25.60
2024-03-13T04:39:17.438Z,24.40
2024-03-13T04:40:21.773Z,23.70
2024-03-13T04:41:25.323Z,25.10
2024-03-13T04:42:29.057Z,24.50
2024-03-13T04:43:31.637Z,24.50
2024-03-13T04:44:34.122Z,21.90
2024-03-13T04:45:39.511Z,23.50
2024-03-13T04:46:43.952Z,22.10
2024-03-13T04:47:46.355Z,25.30
2024-03-13T04:48:48.970Z,23.10
2024-03-13T04:49:51.305Z,24.60
2024-03-13T04:50:53.523Z,23.30
2024-03-13T04:51:56.834Z,23.10
2024-03-13T04:52:59.566Z,21.00
2024-03-13T04:54:01.523Z,24.40
2024-03-13T04:55:06.260Z,24.00
2024-03-13T04:56:10.304Z,24.00
2024-03-13T04:57:13.263Z,24.50
2024-03-13T04:58:16.579Z,23.50
2024-03-13T04:59:18.818Z,23.50
2024-03-13T05:00:22.074Z,23.20
2024-03-13T05:01:24.631Z,23.20
2024-03-13T05:02:27.150Z,23.60
2024-03-13T05:03:30.739Z,23.90
2024-03-13T05:04:36.616Z,22.50
2024-03-13T05:05:39.336Z,23.20
2024-03-13T05:06:43.230Z,24.27
2024-03-13T05:07:45.592Z,21.80
2024-03-13T05:08:49.131Z,24.60
2024-03-13T05:09:53.098Z,24.30
2024-03-13T05:10:55.598Z,21.60
2024-03-13T05:11:58.058Z,22.00
2024-03-13T05:13:01.743Z,21.70
2024-03-13T05:14:05.273Z,23.60
2024-03-13T05:16:29.604Z,22.40
2024-03-13T05:17:34.151Z,22.90
2024-03-13T05:18:38.472Z,24.10
2024-03-13T05:19:42.419Z,22.50
2024-03-13T05:20:45.446Z,23.50
2024-03-13T05:21:48.097Z,23.10
2024-03-13T05:22:50.975Z,18.30
2024-03-13T05:23:53.231Z,22.40
2024-03-13T05:24:59.122Z,21.60
2024-03-13T05:26:01.264Z,21.70
2024-03-13T05:27:03.741Z,22.90
2024-03-13T05:28:06.526Z,22.30
2024-03-13T05:29:09.841Z,22.30
2024-03-13T05:30:14.700Z,18.40
2024-03-13T05:31:17.572Z,21.80
2024-03-13T05:32:19.916Z,24.40
2024-03-13T05:33:23.341Z,22.00
2024-03-13T05:34:27.967Z,20.70
2024-03-13T05:35:30.128Z,21.80
2024-03-13T05:36:32.880Z,22.20
2024-03-13T05:37:37.024Z,22.50
2024-03-13T05:38:40.546Z,23.30
2024-03-13T05:39:42.839Z,22.70
2024-03-13T05:40:45.075Z,24.80
2024-03-13T05:41:47.328Z,23.70
2024-03-13T05:42:56.042Z,21.70
2024-03-13T05:44:00.398Z,23.60
2024-03-13T05:45:07.781Z,21.60
2024-03-13T05:46:14.006Z,22.40
2024-03-13T05:47:17.364Z,24.00
2024-03-13T05:48:19.700Z,23.20
2024-03-13T05:49:22.294Z,23.50
2024-03-13T05:50:24.716Z,23.10
2024-03-13T05:51:29.594Z,24.60
2024-03-13T05:52:31.978Z,24.70
2024-03-13T05:53:34.059Z,21.67
2024-03-13T05:54:37.527Z,24.30
2024-03-13T05:55:40.712Z,22.70
2024-03-13T05:56:43.970Z,24.60
2024-03-13T05:57:46.466Z,21.73
2024-03-13T05:58:52.452Z,20.70
2024-03-13T05:59:55.074Z,21.70
2024-03-13T06:00:57.984Z,22.80
2024-03-13T06:02:00.935Z,23.55
2024-03-13T06:03:04.067Z,22.60
2024-03-13T06:04:07.051Z,21.27
2024-03-13T06:05:13.578Z,18.70
2024-03-13T06:06:15.993Z,21.50
2024-03-13T06:07:18.343Z,22.10
2024-03-13T06:08:21.650Z,22.40
2024-03-13T06:09:24.483Z,22.30
2024-03-13T06:10:30.668Z,22.82
2024-03-13T06:11:30.860Z,22.80
2024-03-13T06:12:34.628Z,20.00
2024-03-13T06:13:38.180Z,23.40
2024-03-13T06:14:40.786Z,21.80
2024-03-13T06:15:43.161Z,22.50
2024-03-13T06:16:45.558Z,22.30
2024-03-13T06:17:48.446Z,23.30
2024-03-13T06:18:50.907Z,22.50
2024-03-13T06:19:53.021Z,21.90
2024-03-13T06:20:55.948Z,21.90
2024-03-13T06:21:58.571Z,21.90
2024-03-13T06:23:00.697Z,22.40
2024-03-13T06:24:05.041Z,21.20
2024-03-13T06:25:08.341Z,23.60
2024-03-13T06:26:13.251Z,23.70
2024-03-13T06:27:16.730Z,22.40
2024-03-13T06:28:37.938Z,17.70
2024-03-13T06:29:59.836Z,22.20
2024-03-13T06:31:02.953Z,22.80
2024-03-13T06:32:07.470Z,22.10
2024-03-13T06:33:11.642Z,23.20
2024-03-13T06:34:14.477Z,23.80
2024-03-13T06:35:16.702Z,22.00
2024-03-13T06:36:19.209Z,24.60
2024-03-13T06:37:24.554Z,22.90
2024-03-13T06:38:27.452Z,23.80
2024-03-13T06:39:29.894Z,24.60
2024-03-13T06:40:34.064Z,23.00
2024-03-13T06:41:36.801Z,21.90
2024-03-13T06:42:38.807Z,22.20
2024-03-13T06:43:41.640Z,21.90
2024-03-13T06:44:46.954Z,23.20
2024-03-13T06:45:51.540Z,22.60
2024-03-13T06:46:54.431Z,23.80
2024-03-13T06:47:58.503Z,22.40
2024-03-13T06:49:00.765Z,23.30
2024-03-13T06:50:03.432Z,22.60
2024-03-13T06:51:08.693Z,23.00
2024-03-13T06:52:13.798Z,22.70
2024-03-13T06:53:16.495Z,24.50
2024-03-13T06:54:18.939Z,22.64
2024-03-13T06:55:23.203Z,23.00
2024-03-13T06:56:26.182Z,22.30
2024-03-13T06:57:29.438Z,22.40
2024-03-13T06:58:32.101Z,23.70
2024-03-13T06:59:37.723Z,22.90
2024-03-13T07:00:41.550Z,22.10
2024-03-13T07:01:47.689Z,22.10
2024-03-13T07:02:50.112Z,22.70
2024-03-13T07:03:52.914Z,20.30
2024-03-13T07:04:55.402Z,21.90
2024-03-13T07:05:58.235Z,22.70
2024-03-13T07:07:01.256Z,20.60
2024-03-13T07:08:04.849Z,22.27
2024-03-13T07:09:08.468Z,22.30
2024-03-13T07:10:11.111Z,21.10
2024-03-13T07:11:14.436Z,21.90
2024-03-13T07:12:16.699Z,20.90
2024-03-13T07:13:19.889Z,20.00
2024-03-13T07:14:22.802Z,21.30
2024-03-13T07:15:25.077Z,17.91
2024-03-13T07:16:27.906Z,20.10
2024-03-13T07:17:30.485Z,20.30
2024-03-13T07:18:34.080Z,23.30
2024-03-13T07:19:38.407Z,21.70
2024-03-13T07:20:41.285Z,22.90
2024-03-13T07:21:44.661Z,24.18
2024-03-13T07:22:46.967Z,23.00
2024-03-13T07:23:49.073Z,21.40
2024-03-13T07:24:51.811Z,22.90
2024-03-13T07:25:55.732Z,17.82
2024-03-13T07:26:58.791Z,21.70
2024-03-13T07:28:02.327Z,21.27
2024-03-13T07:29:05.884Z,19.90
2024-03-13T07:30:09.775Z,20.20
2024-03-13T07:31:15.947Z,19.40
2024-03-13T07:32:18.285Z,20.30
2024-03-13T07:33:21.193Z,20.10
2024-03-13T07:34:24.148Z,21.18
2024-03-13T07:35:26.743Z,20.45
2024-03-13T07:36:29.398Z,17.30
2024-03-13T07:37:32.467Z,19.40
2024-03-13T07:38:34.630Z,21.20
2024-03-13T07:39:37.429Z,18.90
2024-03-13T07:40:42.128Z,21.09
2024-03-13T07:41:44.555Z,18.10
2024-03-13T07:42:49.656Z,17.90
2024-03-13T07:43:51.397Z,19.60
2024-03-13T07:44:54.841Z,18.20
2024-03-13T07:45:58.483Z,18.70
2024-03-13T07:47:00.928Z,16.10
2024-03-13T07:48:11.041Z,17.60
2024-03-13T07:49:16.258Z,18.80
2024-03-13T07:50:19.156Z,18.70
2024-03-13T07:51:21.976Z,16.80
2024-03-13T07:52:24.377Z,16.82
2024-03-13T07:53:26.715Z,15.00
2024-03-13T07:54:30.954Z,14.60
2024-03-13T07:55:37.170Z,14.60
2024-03-13T07:56:40.063Z,18.10
2024-03-13T07:57:44.457Z,17.64
2024-03-13T07:58:47.419Z,19.00
2024-03-13T07:59:50.741Z,16.73
2024-03-13T08:00:54.217Z,18.30
2024-03-13T08:01:56.857Z,16.90
2024-03-13T08:02:59.761Z,18.50
2024-03-13T08:04:02.961Z,19.30
2024-03-13T08:05:05.683Z,17.90
2024-03-13T09:05:52.384Z,19.80
2024-03-13T09:06:55.264Z,19.60
2024-03-13T09:07:57.752Z,18.70
2024-03-13T09:09:00.061Z,13.20
2024-03-13T09:10:03.097Z,17.60
2024-03-13T09:11:05.550Z,19.80
2024-03-13T09:12:08.770Z,20.40
2024-03-13T09:13:13.718Z,18.60
2024-03-13T09:14:18.149Z,14.20
2024-03-13T09:15:21.776Z,17.70
2024-03-13T09:16:24.259Z,18.80
2024-03-13T09:17:27.158Z,19.40
2024-03-13T09:18:29.417Z,16.60
2024-03-13T09:19:35.335Z,18.10
2024-03-13T09:20:38.171Z,16.50
2024-03-13T09:21:42.404Z,18.10
2024-03-13T09:22:45.569Z,17.70
2024-03-13T09:23:47.770Z,16.30
2024-03-13T09:24:51.540Z,15.20
2024-03-13T09:25:58.671Z,18.10
2024-03-13T09:27:02.496Z,18.00
2024-03-13T09:28:05.370Z,18.50
2024-03-13T09:29:07.665Z,18.10
2024-03-13T09:30:12.045Z,11.60
2024-03-13T09:31:15.239Z,20.50
2024-03-13T09:32:17.614Z,16.10
2024-03-13T09:33:19.882Z,17.80
2024-03-13T09:34:22.919Z,27.40
2024-03-13T09:35:25.178Z,30.82
2024-03-13T09:36:28.140Z,17.60
2024-03-13T09:37:33.832Z,19.70
2024-03-13T09:38:36.282Z,16.70
2024-03-13T09:39:38.568Z,15.50
2024-03-13T09:40:46.503Z,17.80
2024-03-13T09:41:48.612Z,16.70
2024-03-13T09:42:55.089Z,9.00
2024-03-13T09:44:00.434Z,10.10
2024-03-13T09:45:04.678Z,14.90
2024-03-13T09:46:07.603Z,16.40
2024-03-13T09:47:13.171Z,17.60
2024-03-13T09:48:16.550Z,18.20
2024-03-13T09:49:20.993Z,18.70
2024-03-13T09:50:23.831Z,11.40
2024-03-13T09:51:28.089Z,16.40
2024-03-13T09:52:31.196Z,16.10
2024-03-13T09:53:34.311Z,18.00
2024-03-13T09:54:36.617Z,16.80
2024-03-13T09:55:40.995Z,18.30
2024-03-13T09:56:47.256Z,16.70
2024-03-13T09:57:50.084Z,14.90
2024-03-13T09:58:55.804Z,16.73
2024-03-13T09:59:58.951Z,16.50
2024-03-13T10:01:05.364Z,16.10
2024-03-13T10:02:12.260Z,13.80
2024-03-13T10:03:22.441Z,15.20
2024-03-13T10:04:27.791Z,16.90
2024-03-13T10:05:31.632Z,14.80
2024-03-13T10:06:37.089Z,15.20
2024-03-13T10:07:39.320Z,13.20
2024-03-13T10:08:45.649Z,13.40
2024-03-13T10:09:49.595Z,16.20
2024-03-13T10:10:54.208Z,16.20
2024-03-13T10:12:00.622Z,17.50
2024-03-13T10:13:04.368Z,13.80
2024-03-13T10:14:07.949Z,13.40
2024-03-13T10:15:12.736Z,16.40
2024-03-13T10:16:16.916Z,15.60
2024-03-13T10:17:23.096Z,15.40
2024-03-13T10:18:28.000Z,13.00
2024-03-13T10:19:33.883Z,14.70
2024-03-13T10:20:41.064Z,17.00
2024-03-13T10:21:45.856Z,14.60
2024-03-13T10:22:49.228Z,15.70
2024-03-13T10:23:57.475Z,13.90
2024-03-13T10:25:01.504Z,17.60
2024-03-13T10:26:09.087Z,14.90
2024-03-13T10:27:14.655Z,15.10
2024-03-13T10:28:19.466Z,15.80
2024-03-13T10:29:22.131Z,15.30
2024-03-13T10:30:25.683Z,14.82
2024-03-13T10:31:30.310Z,16.20
2024-03-13T10:32:32.681Z,13.00
2024-03-13T10:33:36.291Z,15.80
2024-03-13T10:34:38.587Z,12.30
2024-03-13T10:35:43.942Z,15.00
2024-03-13T10:36:54.744Z,13.90
2024-03-13T10:37:52.128Z,14.50
2024-03-13T10:39:03.257Z,15.90
2024-03-13T10:40:06.489Z,12.20
2024-03-13T10:41:08.926Z,14.91
2024-03-13T10:42:11.490Z,13.50
2024-03-13T10:43:14.839Z,12.80
2024-03-13T10:44:17.089Z,15.80
2024-03-13T10:45:19.352Z,14.20
2024-03-13T10:46:22.635Z,13.90
2024-03-13T10:47:28.386Z,17.18
2024-03-13T10:48:30.952Z,7.50
2024-03-13T10:49:34.147Z,15.50
2024-03-13T10:50:36.615Z,14.10
2024-03-13T10:51:39.615Z,11.90
2024-03-13T10:52:42.031Z,13.27
2024-03-13T10:53:45.298Z,13.30
2024-03-13T10:54:48.515Z,9.80
2024-03-13T10:55:51.020Z,10.90
2024-03-13T10:56:53.574Z,11.40
2024-03-13T10:57:55.855Z,13.10
2024-03-13T10:59:01.665Z,13.40
2024-03-13T11:00:04.354Z,11.60
2024-03-13T11:01:10.794Z,15.60
2024-03-13T11:02:15.352Z,13.60
2024-03-13T11:03:19.292Z,12.00
2024-03-13T11:04:23.142Z,14.80
2024-03-13T11:05:26.625Z,14.90
2024-03-13T11:06:30.671Z,12.80
2024-03-13T11:07:33.914Z,6.70
2024-03-13T11:08:36.041Z,13.50
2024-03-13T11:09:38.996Z,16.30
2024-03-13T11:10:42.156Z,14.10
2024-03-13T11:11:45.479Z,16.82
2024-03-13T11:12:51.894Z,13.80
2024-03-13T11:13:57.148Z,16.40
2024-03-13T11:15:04.308Z,14.90
2024-03-13T11:16:09.751Z,12.80
2024-03-13T11:17:13.763Z,15.10
2024-03-13T11:18:18.777Z,14.70
2024-03-13T11:19:23.912Z,16.20
2024-03-13T11:20:30.625Z,13.30
2024-03-13T11:21:43.706Z,15.10
2024-03-13T11:22:49.644Z,15.90
2024-03-13T11:23:56.666Z,16.80
2024-03-13T11:25:01.665Z,12.50
2024-03-13T11:26:05.364Z,16.30
2024-03-13T11:27:11.483Z,13.50
2024-03-13T11:28:18.543Z,14.40
2024-03-13T11:29:24.695Z,14.70
2024-03-13T11:30:29.864Z,12.80
2024-03-13T11:31:32.899Z,16.50
2024-03-13T11:32:35.832Z,13.09
2024-03-13T11:33:39.752Z,21.91
2024-03-13T11:34:43.374Z,20.90
2024-03-13T11:35:46.029Z,13.30
2024-03-13T11:36:49.792Z,15.10
2024-03-13T11:37:54.397Z,17.90
2024-03-13T11:38:58.323Z,13.80
2024-03-13T11:40:01.698Z,15.30
2024-03-13T11:41:06.016Z,14.30
2024-03-13T11:42:19.426Z,20.00
2024-03-13T11:43:24.281Z,17.50
2024-03-13T11:44:29.078Z,17.10
2024-03-13T11:45:31.457Z,17.80
2024-03-13T11:46:45.249Z,13.60
2024-03-13T11:49:09.417Z,13.50
2024-03-13T11:50:11.703Z,15.20
2024-03-13T11:51:14.626Z,16.60
2024-03-13T11:52:16.978Z,14.18
2024-03-13T11:53:19.913Z,14.70
2024-03-13T11:54:29.567Z,15.40
2024-03-13T11:55:35.020Z,14.00
2024-03-13T11:56:43.795Z,18.20
2024-03-13T11:57:47.575Z,15.00
2024-03-13T11:58:50.521Z,13.20
2024-03-13T11:59:55.341Z,19.64
2024-03-13T12:01:00.360Z,16.90
2024-03-13T12:02:03.734Z,19.80
2024-03-13T12:03:09.032Z,8.60
2024-03-13T12:04:11.745Z,16.70
2024-03-13T12:05:17.646Z,34.60
2024-03-13T12:06:26.404Z,23.10
2024-03-13T12:07:29.178Z,21.00
2024-03-13T12:08:33.027Z,13.00
2024-03-13T12:09:36.530Z,16.80
2024-03-13T12:10:40.471Z,19.10
2024-03-13T12:11:46.728Z,18.40
2024-03-13T12:12:50.298Z,17.30
2024-03-13T12:13:52.584Z,15.90
2024-03-13T12:14:55.659Z,17.20
2024-03-13T12:16:01.545Z,17.60
2024-03-13T12:17:05.718Z,15.20
2024-03-13T12:18:10.259Z,3.60
2024-03-13T12:19:14.492Z,16.10
2024-03-13T12:20:22.521Z,14.30
2024-03-13T12:21:25.831Z,16.70
2024-03-13T12:22:28.047Z,19.10
2024-03-13T12:23:30.316Z,18.80
2024-03-13T12:24:34.069Z,15.70
2024-03-13T12:25:37.193Z,15.70
2024-03-13T12:26:43.943Z,15.70
2024-03-13T12:27:52.612Z,18.30
2024-03-13T12:28:59.041Z,15.90
2024-03-13T12:30:02.542Z,13.80
2024-03-13T12:31:10.131Z,18.00
2024-03-13T12:32:14.372Z,15.60
2024-03-13T12:33:17.030Z,15.40
2024-03-13T12:34:19.415Z,13.00
2024-03-13T12:35:22.080Z,17.70
2024-03-13T12:36:25.538Z,11.55
2024-03-13T12:37:27.740Z,14.30
2024-03-13T12:38:37.331Z,21.10
2024-03-13T12:39:41.161Z,15.00
2024-03-13T12:40:45.684Z,30.30
2024-03-13T12:41:49.111Z,24.30
2024-03-13T12:42:51.973Z,16.50
2024-03-13T12:43:54.541Z,21.73
2024-03-13T12:44:57.605Z,13.20
2024-03-13T12:46:03.459Z,18.09
2024-03-13T12:47:09.801Z,17.90
2024-03-13T12:48:12.292Z,15.60
2024-03-13T12:49:17.238Z,15.90
2024-03-13T12:50:19.675Z,18.20
2024-03-13T12:51:22.339Z,18.70
2024-03-13T12:52:28.946Z,15.60
2024-03-13T12:53:32.223Z,33.30
2024-03-13T12:54:36.326Z,17.10
2024-03-13T12:55:39.049Z,21.10
2024-03-13T12:56:45.196Z,18.00
2024-03-13T12:57:53.260Z,15.40
2024-03-13T12:58:58.094Z,15.80
2024-03-13T13:00:05.346Z,17.00
2024-03-13T13:01:10.405Z,13.90
2024-03-13T13:02:15.044Z,14.50
2024-03-13T13:03:19.440Z,13.40
2024-03-13T13:04:22.469Z,14.30
2024-03-13T13:05:25.089Z,13.90
2024-03-13T13:06:27.467Z,12.60
2024-03-13T13:07:31.036Z,10.50
2024-03-13T13:08:36.060Z,14.70
2024-03-13T13:09:38.305Z,13.30
2024-03-13T13:10:41.498Z,6.80
2024-03-13T13:11:45.910Z,12.70
2024-03-13T13:12:49.576Z,12.40
2024-03-13T13:13:52.326Z,13.80
2024-03-13T13:14:56.188Z,13.27
2024-03-13T13:16:00.267Z,12.50
2024-03-13T13:17:04.925Z,11.80
2024-03-13T13:18:09.125Z,9.60
2024-03-13T13:19:12.189Z,13.00
2024-03-13T13:20:16.491Z,13.80
2024-03-13T13:21:18.900Z,12.70
2024-03-13T13:22:21.026Z,12.60
2024-03-13T13:23:25.226Z,10.60
2024-03-13T13:24:27.974Z,13.70
2024-03-13T13:25:32.105Z,14.70
2024-03-13T13:26:34.733Z,15.00
2024-03-13T13:27:40.177Z,14.10
2024-03-13T13:28:43.410Z,15.00
2024-03-13T13:29:48.603Z,15.00
2024-03-13T13:30:50.004Z,12.40
2024-03-13T13:31:52.842Z,16.00
2024-03-13T13:32:55.212Z,18.00
2024-03-13T13:33:58.447Z,14.60
2024-03-13T13:35:00.595Z,16.80
2024-03-13T13:36:04.074Z,17.80
2024-03-13T13:37:10.861Z,15.50
2024-03-13T13:38:14.661Z,12.50
2024-03-13T13:39:18.900Z,17.20
2024-03-13T13:40:23.817Z,13.60
2024-03-13T13:41:26.085Z,16.80
2024-03-13T13:42:28.258Z,18.20
2024-03-13T13:43:33.203Z,17.27
2024-03-13T13:44:35.662Z,16.90
2024-03-13T13:45:38.436Z,8.60
2024-03-13T13:46:41.302Z,16.20
2024-03-13T13:47:46.482Z,14.82
2024-03-13T13:48:49.985Z,17.00
2024-03-13T13:49:52.902Z,14.60
2024-03-13T13:50:55.186Z,16.55
2024-03-13T13:51:57.915Z,17.70
2024-03-13T13:53:00.346Z,15.70
2024-03-13T13:54:03.418Z,15.70
2024-03-13T13:55:06.156Z,16.40
2024-03-13T13:56:09.243Z,16.40
2024-03-13T13:57:13.236Z,15.90
2024-03-13T13:58:15.454Z,14.80
2024-03-13T13:59:22.168Z,13.20
2024-03-13T14:00:26.262Z,14.60
2024-03-13T14:01:31.699Z,14.70
2024-03-13T14:02:34.366Z,15.90
2024-03-13T14:03:38.185Z,15.90
2024-03-13T14:04:40.572Z,15.40
2024-03-13T14:05:44.870Z,15.80
2024-03-13T14:06:48.516Z,15.30
2024-03-13T14:07:52.040Z,16.70
2024-03-13T14:08:55.050Z,15.70
2024-03-13T14:09:57.389Z,14.27
2024-03-13T14:11:01.888Z,17.30
2024-03-13T14:12:03.880Z,15.20
2024-03-13T14:13:06.079Z,14.00
2024-03-13T14:14:10.640Z,19.00
2024-03-13T14:15:14.916Z,18.40
2024-03-13T14:16:18.271Z,18.70
2024-03-13T14:17:20.720Z,19.40
2024-03-13T14:18:23.172Z,19.10
2024-03-13T14:19:25.929Z,24.10
2024-03-13T14:20:28.405Z,20.90
2024-03-13T14:21:30.806Z,21.20
2024-03-13T14:22:33.279Z,18.70
2024-03-13T14:23:35.944Z,17.60
2024-03-13T14:24:38.989Z,17.60
2024-03-13T14:25:41.401Z,21.20
2024-03-13T14:26:43.824Z,17.10
2024-03-13T14:27:46.613Z,19.50
2024-03-13T14:28:48.993Z,20.27
2024-03-13T14:29:51.289Z,18.10
2024-03-13T14:30:55.640Z,20.70
2024-03-13T14:31:57.889Z,18.60
2024-03-13T14:33:02.007Z,19.20
2024-03-13T14:34:04.473Z,20.00
2024-03-13T14:35:09.679Z,14.40
2024-03-13T14:36:13.139Z,16.30
2024-03-13T14:37:15.436Z,12.80
2024-03-13T14:38:17.737Z,15.90
2024-03-13T14:39:20.177Z,15.20
2024-03-13T14:40:24.041Z,15.50
2024-03-13T14:41:26.676Z,15.90
2024-03-13T14:42:36.798Z,21.50
2024-03-13T14:43:41.822Z,15.50
2024-03-13T14:44:44.479Z,19.90
2024-03-13T14:45:46.800Z,19.00
2024-03-13T14:46:49.628Z,17.10
2024-03-13T14:47:52.172Z,14.91
2024-03-13T14:48:54.605Z,16.10